sensor_id;sensor_type;location;lat;lon;timestamp;pressure;altitude;pressure_sealevel;temperature;humidity
5380;BME280;2713;42.680;23.310;2022-10-29T00:00:14;96227.59;;;13.00;60.71
5380;BME280;2713;42.680;23.310;2022-10-29T00:02:41;96223.19;;;12.85;60.92
5380;BME280;2713;42.680;23.310;2022-10-29T00:05:08;96226.13;;;12.82;60.97
5380;BME280;2713;42.680;23.310;2022-10-29T00:07:35;96223.56;;;12.74;61.55
5380;BME280;2713;42.680;23.310;2022-10-29T00:10:02;96212.47;;;12.63;61.79
5380;BME280;2713;42.680;23.310;2022-10-29T00:12:30;96225.66;;;12.54;61.94
5380;BME280;2713;42.680;23.310;2022-10-29T00:14:57;96218.81;;;12.53;62.17
5380;BME280;2713;42.680;23.310;2022-10-29T00:17:24;96213.09;;;12.33;62.50
5380;BME280;2713;42.680;23.310;2022-10-29T00:19:51;96212.59;;;12.54;62.14
5380;BME280;2713;42.680;23.310;2022-10-29T00:22:18;96208.84;;;12.40;62.56
5380;BME280;2713;42.680;23.310;2022-10-29T00:24:45;96206.91;;;12.42;62.32
5380;BME280;2713;42.680;23.310;2022-10-29T00:27:11;96218.00;;;12.36;62.53
5380;BME280;2713;42.680;23.310;2022-10-29T00:29:40;96211.47;;;12.40;62.39
5380;BME280;2713;42.680;23.310;2022-10-29T00:32:06;96198.22;;;12.09;63.25
5380;BME280;2713;42.680;23.310;2022-10-29T00:34:34;96198.75;;;12.29;61.87
5380;BME280;2713;42.680;23.310;2022-10-29T00:37:02;96197.13;;;12.28;62.49
5380;BME280;2713;42.680;23.310;2022-10-29T00:39:29;96210.50;;;12.49;61.78
5380;BME280;2713;42.680;23.310;2022-10-29T00:41:57;96203.66;;;12.48;62.02
5380;BME280;2713;42.680;23.310;2022-10-29T00:44:28;96204.78;;;12.62;61.60
5380;BME280;2713;42.680;23.310;2022-10-29T00:47:01;96203.34;;;12.59;61.61
5380;BME280;2713;42.680;23.310;2022-10-29T00:49:30;96198.09;;;12.35;62.15
5380;BME280;2713;42.680;23.310;2022-10-29T00:52:00;96193.50;;;12.13;63.39
5380;BME280;2713;42.680;23.310;2022-10-29T00:54:29;96195.16;;;12.14;63.10
5380;BME280;2713;42.680;23.310;2022-10-29T00:57:00;96196.81;;;12.31;62.71
5380;BME280;2713;42.680;23.310;2022-10-29T00:59:29;96196.44;;;12.02;63.54
5380;BME280;2713;42.680;23.310;2022-10-29T01:01:57;96195.78;;;12.00;63.30
5380;BME280;2713;42.680;23.310;2022-10-29T01:04:25;96199.66;;;11.96;63.37
5380;BME280;2713;42.680;23.310;2022-10-29T01:06:53;96192.53;;;12.06;63.17
5380;BME280;2713;42.680;23.310;2022-10-29T01:09:20;96161.09;;;11.91;63.11
5380;BME280;2713;42.680;23.310;2022-10-29T01:11:54;96187.75;;;11.85;64.20
5380;BME280;2713;42.680;23.310;2022-10-29T01:14:31;96178.47;;;11.83;64.20
5380;BME280;2713;42.680;23.310;2022-10-29T01:17:09;96178.19;;;11.94;63.60
5380;BME280;2713;42.680;23.310;2022-10-29T01:20:00;96173.41;;;11.73;64.52
5380;BME280;2713;42.680;23.310;2022-10-29T01:22:34;96175.13;;;12.14;63.17
5380;BME280;2713;42.680;23.310;2022-10-29T01:25:26;96162.91;;;12.23;62.38
5380;BME280;2713;42.680;23.310;2022-10-29T01:28:09;96168.09;;;12.23;62.26
5380;BME280;2713;42.680;23.310;2022-10-29T01:31:08;96172.16;;;12.09;62.75
5380;BME280;2713;42.680;23.310;2022-10-29T01:34:07;96168.28;;;12.30;62.02
5380;BME280;2713;42.680;23.310;2022-10-29T01:36:39;96165.19;;;12.34;61.96
5380;BME280;2713;42.680;23.310;2022-10-29T01:39:16;96169.09;;;12.38;61.81
5380;BME280;2713;42.680;23.310;2022-10-29T01:41:50;96169.22;;;11.88;63.46
5380;BME280;2713;42.680;23.310;2022-10-29T01:44:28;96160.63;;;12.12;63.00
5380;BME280;2713;42.680;23.310;2022-10-29T01:47:00;96168.09;;;12.23;62.39
5380;BME280;2713;42.680;23.310;2022-10-29T01:49:33;96165.19;;;12.02;63.22
5380;BME280;2713;42.680;23.310;2022-10-29T01:52:02;96162.88;;;11.91;63.70
5380;BME280;2713;42.680;23.310;2022-10-29T01:54:30;96162.56;;;12.02;63.13
5380;BME280;2713;42.680;23.310;2022-10-29T01:56:58;96148.22;;;11.90;63.64
5380;BME280;2713;42.680;23.310;2022-10-29T01:59:28;96154.56;;;12.03;63.10
5380;BME280;2713;42.680;23.310;2022-10-29T02:02:05;96156.22;;;12.04;63.20
5380;BME280;2713;42.680;23.310;2022-10-29T02:04:55;96157.66;;;11.91;63.24
5380;BME280;2713;42.680;23.310;2022-10-29T02:07:46;96153.13;;;12.01;62.81
5380;BME280;2713;42.680;23.310;2022-10-29T02:10:21;96152.59;;;11.81;63.86
5380;BME280;2713;42.680;23.310;2022-10-29T02:12:51;96157.84;;;11.55;64.88
5380;BME280;2713;42.680;23.310;2022-10-29T02:15:22;96153.16;;;11.59;64.73
5380;BME280;2713;42.680;23.310;2022-10-29T02:17:52;96146.34;;;11.66;64.40
5380;BME280;2713;42.680;23.310;2022-10-29T02:20:19;96144.97;;;11.88;63.83
5380;BME280;2713;42.680;23.310;2022-10-29T02:22:46;96147.72;;;12.02;63.03
5380;BME280;2713;42.680;23.310;2022-10-29T02:25:12;96148.56;;;12.11;62.54
5380;BME280;2713;42.680;23.310;2022-10-29T02:27:39;96148.53;;;12.03;62.95
5380;BME280;2713;42.680;23.310;2022-10-29T02:30:07;96145.94;;;11.87;63.25
5380;BME280;2713;42.680;23.310;2022-10-29T02:32:34;96129.06;;;11.57;63.76
5380;BME280;2713;42.680;23.310;2022-10-29T02:35:03;96146.00;;;11.69;63.98
5380;BME280;2713;42.680;23.310;2022-10-29T02:37:30;96144.91;;;11.72;63.95
5380;BME280;2713;42.680;23.310;2022-10-29T02:39:57;96144.38;;;11.60;64.30
5380;BME280;2713;42.680;23.310;2022-10-29T02:42:24;96130.69;;;11.58;64.68
5380;BME280;2713;42.680;23.310;2022-10-29T02:44:51;96133.41;;;11.40;65.12
5380;BME280;2713;42.680;23.310;2022-10-29T02:47:17;96114.69;;;11.45;64.52
5380;BME280;2713;42.680;23.310;2022-10-29T02:49:44;96143.19;;;11.46;65.31
5380;BME280;2713;42.680;23.310;2022-10-29T02:52:13;96142.59;;;11.68;64.20
5380;BME280;2713;42.680;23.310;2022-10-29T02:54:39;96138.41;;;11.76;64.12
5380;BME280;2713;42.680;23.310;2022-10-29T02:57:07;96145.09;;;11.86;63.80
5380;BME280;2713;42.680;23.310;2022-10-29T02:59:34;96142.03;;;11.91;63.63
5380;BME280;2713;42.680;23.310;2022-10-29T03:02:01;96129.56;;;11.68;64.14
5380;BME280;2713;42.680;23.310;2022-10-29T03:04:28;96145.44;;;11.91;63.37
5380;BME280;2713;42.680;23.310;2022-10-29T03:06:55;96147.88;;;11.85;63.55
5380;BME280;2713;42.680;23.310;2022-10-29T03:09:23;96147.72;;;11.86;63.65
5380;BME280;2713;42.680;23.310;2022-10-29T03:11:50;96143.78;;;11.82;63.65
5380;BME280;2713;42.680;23.310;2022-10-29T03:14:17;96123.22;;;11.63;64.03
5380;BME280;2713;42.680;23.310;2022-10-29T03:16:43;96136.06;;;11.64;64.38
5380;BME280;2713;42.680;23.310;2022-10-29T03:19:10;96142.31;;;11.72;63.98
5380;BME280;2713;42.680;23.310;2022-10-29T03:21:37;96136.31;;;11.71;63.94
5380;BME280;2713;42.680;23.310;2022-10-29T03:24:04;96132.16;;;11.60;64.09
5380;BME280;2713;42.680;23.310;2022-10-29T03:26:33;96129.75;;;11.67;64.33
5380;BME280;2713;42.680;23.310;2022-10-29T03:29:00;96133.72;;;11.37;64.97
5380;BME280;2713;42.680;23.310;2022-10-29T03:31:26;96119.28;;;11.51;64.53
5380;BME280;2713;42.680;23.310;2022-10-29T03:33:53;96129.25;;;11.63;64.37
5380;BME280;2713;42.680;23.310;2022-10-29T03:36:20;96135.91;;;11.66;64.38
5380;BME280;2713;42.680;23.310;2022-10-29T03:38:47;96123.88;;;11.57;64.28
5380;BME280;2713;42.680;23.310;2022-10-29T03:41:14;96127.94;;;11.59;64.23
5380;BME280;2713;42.680;23.310;2022-10-29T03:43:42;96128.25;;;11.56;64.52
5380;BME280;2713;42.680;23.310;2022-10-29T03:46:08;96124.66;;;11.49;65.14
5380;BME280;2713;42.680;23.310;2022-10-29T03:48:35;96119.13;;;11.52;64.72
5380;BME280;2713;42.680;23.310;2022-10-29T03:51:03;96113.28;;;11.50;64.98
5380;BME280;2713;42.680;23.310;2022-10-29T03:53:32;96124.94;;;11.38;65.13
5380;BME280;2713;42.680;23.310;2022-10-29T03:55:59;96131.13;;;11.45;64.81
5380;BME280;2713;42.680;23.310;2022-10-29T03:58:26;96129.19;;;11.47;65.11
5380;BME280;2713;42.680;23.310;2022-10-29T04:00:56;96124.19;;;11.54;64.53
5380;BME280;2713;42.680;23.310;2022-10-29T04:03:23;96127.56;;;11.46;64.68
5380;BME280;2713;42.680;23.310;2022-10-29T04:05:50;96133.06;;;11.35;65.05
5380;BME280;2713;42.680;23.310;2022-10-29T04:08:17;96127.34;;;11.32;65.23
5380;BME280;2713;42.680;23.310;2022-10-29T04:10:44;96132.91;;;11.37;65.03
5380;BME280;2713;42.680;23.310;2022-10-29T04:13:11;96125.53;;;11.24;65.13
5380;BME280;2713;42.680;23.310;2022-10-29T04:15:38;96122.19;;;11.40;64.81
5380;BME280;2713;42.680;23.310;2022-10-29T04:18:07;96141.06;;;11.42;64.81
5380;BME280;2713;42.680;23.310;2022-10-29T04:20:34;96132.75;;;11.38;64.45
5380;BME280;2713;42.680;23.310;2022-10-29T04:23:01;96138.03;;;11.20;65.13
5380;BME280;2713;42.680;23.310;2022-10-29T04:25:28;96142.16;;;11.31;64.47
5380;BME280;2713;42.680;23.310;2022-10-29T04:27:55;96138.41;;;11.34;64.58
5380;BME280;2713;42.680;23.310;2022-10-29T04:30:23;96139.22;;;11.26;64.77
5380;BME280;2713;42.680;23.310;2022-10-29T04:32:50;96145.59;;;10.98;65.76
5380;BME280;2713;42.680;23.310;2022-10-29T04:35:22;96148.63;;;10.85;66.11
5380;BME280;2713;42.680;23.310;2022-10-29T04:37:49;96149.53;;;11.10;65.16
5380;BME280;2713;42.680;23.310;2022-10-29T04:40:16;96146.22;;;11.26;64.43
5380;BME280;2713;42.680;23.310;2022-10-29T04:42:42;96146.22;;;10.92;65.19
5380;BME280;2713;42.680;23.310;2022-10-29T04:45:09;96149.78;;;10.91;65.61
5380;BME280;2713;42.680;23.310;2022-10-29T04:47:36;96152.69;;;10.88;65.47
5380;BME280;2713;42.680;23.310;2022-10-29T04:50:03;96154.47;;;11.21;64.29
5380;BME280;2713;42.680;23.310;2022-10-29T04:52:32;96159.09;;;11.35;63.79
5380;BME280;2713;42.680;23.310;2022-10-29T04:54:59;96147.09;;;11.08;64.34
5380;BME280;2713;42.680;23.310;2022-10-29T04:57:25;96151.88;;;10.87;65.09
5380;BME280;2713;42.680;23.310;2022-10-29T04:59:52;96151.59;;;10.64;65.98
5380;BME280;2713;42.680;23.310;2022-10-29T05:02:19;96141.72;;;10.50;66.50
5380;BME280;2713;42.680;23.310;2022-10-29T05:04:46;96146.53;;;10.63;66.40
5380;BME280;2713;42.680;23.310;2022-10-29T05:07:12;96143.50;;;10.76;66.26
5380;BME280;2713;42.680;23.310;2022-10-29T05:09:40;96139.63;;;10.80;66.35
5380;BME280;2713;42.680;23.310;2022-10-29T05:12:07;96147.22;;;10.99;65.66
5380;BME280;2713;42.680;23.310;2022-10-29T05:14:34;96154.59;;;11.11;64.81
5380;BME280;2713;42.680;23.310;2022-10-29T05:17:01;96148.88;;;11.08;64.76
5380;BME280;2713;42.680;23.310;2022-10-29T05:19:28;96158.47;;;11.07;64.63
5380;BME280;2713;42.680;23.310;2022-10-29T05:21:55;96131.25;;;10.94;64.60
5380;BME280;2713;42.680;23.310;2022-10-29T05:24:21;96138.47;;;11.08;64.40
5380;BME280;2713;42.680;23.310;2022-10-29T05:26:50;96148.44;;;11.20;64.26
5380;BME280;2713;42.680;23.310;2022-10-29T05:29:16;96148.97;;;11.24;64.15
5380;BME280;2713;42.680;23.310;2022-10-29T05:31:43;96158.44;;;11.33;64.00
5380;BME280;2713;42.680;23.310;2022-10-29T05:34:10;96158.13;;;11.36;64.04
5380;BME280;2713;42.680;23.310;2022-10-29T05:36:37;96163.03;;;11.39;63.93
5380;BME280;2713;42.680;23.310;2022-10-29T05:39:03;96161.06;;;11.41;64.38
5380;BME280;2713;42.680;23.310;2022-10-29T05:41:30;96160.09;;;11.42;64.67
5380;BME280;2713;42.680;23.310;2022-10-29T05:43:58;96161.09;;;11.49;64.39
5380;BME280;2713;42.680;23.310;2022-10-29T05:46:25;96168.91;;;11.49;64.47
5380;BME280;2713;42.680;23.310;2022-10-29T05:48:52;96166.28;;;11.41;64.69
5380;BME280;2713;42.680;23.310;2022-10-29T05:51:19;96171.19;;;11.52;64.45
5380;BME280;2713;42.680;23.310;2022-10-29T05:53:46;96168.28;;;11.55;64.02
5380;BME280;2713;42.680;23.310;2022-10-29T05:56:13;96167.78;;;11.52;64.63
5380;BME280;2713;42.680;23.310;2022-10-29T05:58:40;96166.00;;;11.52;65.00
5380;BME280;2713;42.680;23.310;2022-10-29T06:01:09;96155.47;;;11.28;65.69
5380;BME280;2713;42.680;23.310;2022-10-29T06:03:36;96159.09;;;11.35;65.53
5380;BME280;2713;42.680;23.310;2022-10-29T06:06:03;96178.50;;;11.49;65.39
5380;BME280;2713;42.680;23.310;2022-10-29T06:08:30;96169.22;;;11.46;65.66
5380;BME280;2713;42.680;23.310;2022-10-29T06:10:59;96179.00;;;11.52;65.55
5380;BME280;2713;42.680;23.310;2022-10-29T06:13:26;96177.69;;;11.48;65.58
5380;BME280;2713;42.680;23.310;2022-10-29T06:15:56;96178.72;;;11.63;69.65
5380;BME280;2713;42.680;23.310;2022-10-29T06:18:25;96186.50;;;11.55;66.05
5380;BME280;2713;42.680;23.310;2022-10-29T06:20:52;96177.25;;;11.27;66.80
5380;BME280;2713;42.680;23.310;2022-10-29T06:23:19;96188.00;;;11.24;67.10
5380;BME280;2713;42.680;23.310;2022-10-29T06:25:45;96187.91;;;11.42;66.58
5380;BME280;2713;42.680;23.310;2022-10-29T06:28:12;96194.00;;;11.50;66.25
5380;BME280;2713;42.680;23.310;2022-10-29T06:30:45;96192.84;;;11.53;66.13
5380;BME280;2713;42.680;23.310;2022-10-29T06:33:12;96184.22;;;11.52;66.08
5380;BME280;2713;42.680;23.310;2022-10-29T06:35:40;96176.75;;;11.65;65.64
5380;BME280;2713;42.680;23.310;2022-10-29T06:38:07;96186.84;;;11.60;65.89
5380;BME280;2713;42.680;23.310;2022-10-29T06:40:34;96179.38;;;11.65;65.76
5380;BME280;2713;42.680;23.310;2022-10-29T06:43:02;96178.47;;;11.75;65.69
5380;BME280;2713;42.680;23.310;2022-10-29T06:45:29;96183.50;;;11.76;66.07
5380;BME280;2713;42.680;23.310;2022-10-29T06:47:57;96185.66;;;11.97;65.22
5380;BME280;2713;42.680;23.310;2022-10-29T06:50:24;96177.69;;;11.90;65.20
5380;BME280;2713;42.680;23.310;2022-10-29T06:52:57;96183.72;;;11.99;65.32
5380;BME280;2713;42.680;23.310;2022-10-29T06:55:24;96185.84;;;12.03;64.98
5380;BME280;2713;42.680;23.310;2022-10-29T06:57:59;96181.31;;;12.22;64.36
5380;BME280;2713;42.680;23.310;2022-10-29T07:00:27;96182.13;;;12.22;64.70
5380;BME280;2713;42.680;23.310;2022-10-29T07:02:54;96188.97;;;12.31;64.43
5380;BME280;2713;42.680;23.310;2022-10-29T07:05:21;96188.00;;;12.40;63.91
5380;BME280;2713;42.680;23.310;2022-10-29T07:07:49;96188.81;;;12.57;63.51
5380;BME280;2713;42.680;23.310;2022-10-29T07:10:21;96191.25;;;12.91;62.62
5380;BME280;2713;42.680;23.310;2022-10-29T07:12:47;96192.47;;;13.27;61.37
5380;BME280;2713;42.680;23.310;2022-10-29T07:15:14;96199.53;;;13.65;60.00
5380;BME280;2713;42.680;23.310;2022-10-29T07:17:41;96198.38;;;13.68;59.45
5380;BME280;2713;42.680;23.310;2022-10-29T07:20:09;96198.81;;;14.10;58.58
5380;BME280;2713;42.680;23.310;2022-10-29T07:22:36;96201.97;;;14.51;57.21
5380;BME280;2713;42.680;23.310;2022-10-29T07:25:03;96198.97;;;14.77;55.93
5380;BME280;2713;42.680;23.310;2022-10-29T07:27:32;96194.44;;;15.08;55.10
5380;BME280;2713;42.680;23.310;2022-10-29T07:29:58;96201.13;;;15.26;55.03
5380;BME280;2713;42.680;23.310;2022-10-29T07:32:25;96198.34;;;15.27;54.33
5380;BME280;2713;42.680;23.310;2022-10-29T07:34:52;96183.81;;;15.54;54.01
5380;BME280;2713;42.680;23.310;2022-10-29T07:37:19;96195.66;;;15.64;53.57
5380;BME280;2713;42.680;23.310;2022-10-29T07:39:46;96200.38;;;16.05;52.92
5380;BME280;2713;42.680;23.310;2022-10-29T07:42:12;96194.63;;;16.37;51.91
5380;BME280;2713;42.680;23.310;2022-10-29T07:44:41;96196.00;;;16.54;51.07
5380;BME280;2713;42.680;23.310;2022-10-29T07:47:07;96196.28;;;16.81;50.60
5380;BME280;2713;42.680;23.310;2022-10-29T07:49:34;96195.56;;;17.21;49.62
5380;BME280;2713;42.680;23.310;2022-10-29T07:52:01;96167.44;;;16.87;49.48
5380;BME280;2713;42.680;23.310;2022-10-29T07:54:28;96190.66;;;17.11;49.79
5380;BME280;2713;42.680;23.310;2022-10-29T07:56:55;96196.75;;;17.46;48.90
5380;BME280;2713;42.680;23.310;2022-10-29T07:59:22;96190.56;;;17.60;48.21
5380;BME280;2713;42.680;23.310;2022-10-29T08:01:50;96192.25;;;17.74;48.13
5380;BME280;2713;42.680;23.310;2022-10-29T08:04:17;96169.59;;;17.73;47.47
5380;BME280;2713;42.680;23.310;2022-10-29T08:06:44;96185.16;;;17.75;47.80
5380;BME280;2713;42.680;23.310;2022-10-29T08:09:12;96186.22;;;17.81;47.71
5380;BME280;2713;42.680;23.310;2022-10-29T08:11:39;96175.91;;;17.86;47.43
5380;BME280;2713;42.680;23.310;2022-10-29T08:14:06;96169.31;;;18.16;47.13
5380;BME280;2713;42.680;23.310;2022-10-29T08:16:33;96165.53;;;18.38;46.39
5380;BME280;2713;42.680;23.310;2022-10-29T08:19:01;96166.78;;;18.75;45.62
5380;BME280;2713;42.680;23.310;2022-10-29T08:21:28;96154.41;;;19.02;44.92
5380;BME280;2713;42.680;23.310;2022-10-29T08:23:54;96148.69;;;19.18;44.71
5380;BME280;2713;42.680;23.310;2022-10-29T08:26:21;96149.69;;;19.37;44.49
5380;BME280;2713;42.680;23.310;2022-10-29T08:28:48;96139.72;;;19.39;44.18
5380;BME280;2713;42.680;23.310;2022-10-29T08:31:15;96157.78;;;19.35;44.18
5380;BME280;2713;42.680;23.310;2022-10-29T08:33:43;96149.91;;;19.22;44.41
5380;BME280;2713;42.680;23.310;2022-10-29T08:36:12;96143.25;;;19.19;44.63
5380;BME280;2713;42.680;23.310;2022-10-29T08:38:39;96137.16;;;19.19;44.30
5380;BME280;2713;42.680;23.310;2022-10-29T08:41:17;96145.66;;;19.34;44.15
5380;BME280;2713;42.680;23.310;2022-10-29T08:46:42;96126.25;;;19.02;44.22
5380;BME280;2713;42.680;23.310;2022-10-29T08:49:13;96133.16;;;18.97;44.46
5380;BME280;2713;42.680;23.310;2022-10-29T08:51:48;96119.38;;;18.68;45.64
5380;BME280;2713;42.680;23.310;2022-10-29T08:54:17;96123.84;;;18.61;45.69
5380;BME280;2713;42.680;23.310;2022-10-29T08:56:48;96124.22;;;18.45;46.23
5380;BME280;2713;42.680;23.310;2022-10-29T08:59:17;96124.41;;;18.31;46.05
5380;BME280;2713;42.680;23.310;2022-10-29T09:01:46;96126.03;;;18.25;46.44
5380;BME280;2713;42.680;23.310;2022-10-29T09:04:21;96124.56;;;18.09;46.82
5380;BME280;2713;42.680;23.310;2022-10-29T09:07:08;96113.78;;;17.85;47.57
5380;BME280;2713;42.680;23.310;2022-10-29T09:09:42;96116.63;;;17.83;47.86
5380;BME280;2713;42.680;23.310;2022-10-29T09:12:28;96121.59;;;17.65;48.38
5380;BME280;2713;42.680;23.310;2022-10-29T09:15:29;96115.63;;;17.43;48.87
5380;BME280;2713;42.680;23.310;2022-10-29T09:18:10;96111.16;;;17.37;49.16
5380;BME280;2713;42.680;23.310;2022-10-29T09:20:47;96112.53;;;17.33;49.48
5380;BME280;2713;42.680;23.310;2022-10-29T09:23:27;96111.50;;;17.28;49.29
5380;BME280;2713;42.680;23.310;2022-10-29T09:26:02;96098.16;;;17.22;49.37
5380;BME280;2713;42.680;23.310;2022-10-29T09:28:38;96100.91;;;17.08;49.76
5380;BME280;2713;42.680;23.310;2022-10-29T09:31:18;96098.94;;;17.23;49.96
5380;BME280;2713;42.680;23.310;2022-10-29T09:33:51;96105.25;;;17.29;49.87
5380;BME280;2713;42.680;23.310;2022-10-29T09:36:20;96087.53;;;17.03;50.19
5380;BME280;2713;42.680;23.310;2022-10-29T09:38:54;96096.88;;;17.12;50.23
5380;BME280;2713;42.680;23.310;2022-10-29T09:41:26;96091.84;;;17.17;50.33
5380;BME280;2713;42.680;23.310;2022-10-29T09:43:59;96094.13;;;17.33;49.80
5380;BME280;2713;42.680;23.310;2022-10-29T09:46:34;96094.13;;;17.27;49.88
5380;BME280;2713;42.680;23.310;2022-10-29T09:49:11;96059.31;;;17.18;49.69
5380;BME280;2713;42.680;23.310;2022-10-29T09:51:48;96074.38;;;17.44;49.43
5380;BME280;2713;42.680;23.310;2022-10-29T09:54:19;96075.59;;;17.48;49.17
5380;BME280;2713;42.680;23.310;2022-10-29T09:56:46;96071.50;;;17.32;49.68
5380;BME280;2713;42.680;23.310;2022-10-29T09:59:21;96069.94;;;17.44;49.48
5380;BME280;2713;42.680;23.310;2022-10-29T10:01:51;96064.91;;;17.49;49.75
5380;BME280;2713;42.680;23.310;2022-10-29T10:04:22;96057.41;;;17.46;49.52
5380;BME280;2713;42.680;23.310;2022-10-29T10:07:04;96054.84;;;17.59;49.60
5380;BME280;2713;42.680;23.310;2022-10-29T10:09:51;96041.31;;;17.62;49.38
5380;BME280;2713;42.680;23.310;2022-10-29T10:12:21;96039.91;;;17.60;50.62
5380;BME280;2713;42.680;23.310;2022-10-29T10:14:48;96044.94;;;17.61;49.67
5380;BME280;2713;42.680;23.310;2022-10-29T10:17:15;96026.38;;;17.69;49.19
5380;BME280;2713;42.680;23.310;2022-10-29T10:19:44;96024.16;;;17.86;48.90
5380;BME280;2713;42.680;23.310;2022-10-29T10:22:17;96025.16;;;17.85;51.23
5380;BME280;2713;42.680;23.310;2022-10-29T10:24:45;96025.97;;;17.92;49.30
5380;BME280;2713;42.680;23.310;2022-10-29T10:27:29;95987.13;;;17.88;48.74
5380;BME280;2713;42.680;23.310;2022-10-29T10:30:12;96005.34;;;17.96;48.89
5380;BME280;2713;42.680;23.310;2022-10-29T10:32:40;96002.13;;;18.00;49.01
5380;BME280;2713;42.680;23.310;2022-10-29T10:35:24;95999.28;;;18.21;48.47
5380;BME280;2713;42.680;23.310;2022-10-29T10:37:51;95998.47;;;18.28;49.08
5380;BME280;2713;42.680;23.310;2022-10-29T10:40:21;95986.72;;;18.23;48.80
5380;BME280;2713;42.680;23.310;2022-10-29T10:42:52;95988.34;;;18.31;48.56
5380;BME280;2713;42.680;23.310;2022-10-29T10:45:25;95979.81;;;18.29;48.94
5380;BME280;2713;42.680;23.310;2022-10-29T10:47:55;95983.47;;;18.41;49.04
5380;BME280;2713;42.680;23.310;2022-10-29T10:50:26;95976.19;;;18.37;48.57
5380;BME280;2713;42.680;23.310;2022-10-29T10:52:55;95969.91;;;18.38;48.61
5380;BME280;2713;42.680;23.310;2022-10-29T10:55:26;95966.66;;;18.42;48.32
5380;BME280;2713;42.680;23.310;2022-10-29T10:58:01;95971.94;;;18.55;48.14
5380;BME280;2713;42.680;23.310;2022-10-29T11:00:34;95970.50;;;18.53;48.05
5380;BME280;2713;42.680;23.310;2022-10-29T11:03:11;95955.88;;;18.77;47.63
5380;BME280;2713;42.680;23.310;2022-10-29T11:05:42;95950.91;;;19.00;47.26
5380;BME280;2713;42.680;23.310;2022-10-29T11:08:14;95952.63;;;19.19;46.76
5380;BME280;2713;42.680;23.310;2022-10-29T11:10:47;95936.94;;;19.37;46.36
5380;BME280;2713;42.680;23.310;2022-10-29T11:13:19;95942.81;;;19.70;45.96
5380;BME280;2713;42.680;23.310;2022-10-29T11:15:51;95938.75;;;19.99;45.01
5380;BME280;2713;42.680;23.310;2022-10-29T11:18:23;95935.28;;;20.23;44.04
5380;BME280;2713;42.680;23.310;2022-10-29T11:21:02;95939.78;;;20.41;43.91
5380;BME280;2713;42.680;23.310;2022-10-29T11:23:38;95928.50;;;20.70;43.84
5380;BME280;2713;42.680;23.310;2022-10-29T11:26:11;95925.13;;;20.82;42.39
5380;BME280;2713;42.680;23.310;2022-10-29T11:28:45;95911.59;;;20.90;42.04
5380;BME280;2713;42.680;23.310;2022-10-29T11:31:19;95910.94;;;20.94;41.40
5380;BME280;2713;42.680;23.310;2022-10-29T11:33:59;95905.09;;;20.92;41.93
5380;BME280;2713;42.680;23.310;2022-10-29T11:36:30;95889.72;;;20.83;41.51
5380;BME280;2713;42.680;23.310;2022-10-29T11:39:03;95903.38;;;20.98;41.54
5380;BME280;2713;42.680;23.310;2022-10-29T11:41:38;95892.94;;;21.03;41.68
5380;BME280;2713;42.680;23.310;2022-10-29T11:44:10;95882.34;;;21.03;41.49
5380;BME280;2713;42.680;23.310;2022-10-29T11:46:43;95892.66;;;21.11;40.86
5380;BME280;2713;42.680;23.310;2022-10-29T11:49:26;95882.88;;;21.11;41.35
5380;BME280;2713;42.680;23.310;2022-10-29T11:52:04;95886.00;;;21.20;40.73
5380;BME280;2713;42.680;23.310;2022-10-29T11:54:44;95882.34;;;21.21;40.98
5380;BME280;2713;42.680;23.310;2022-10-29T11:57:18;95876.84;;;21.34;41.18
5380;BME280;2713;42.680;23.310;2022-10-29T12:00:03;95871.09;;;21.37;40.82
5380;BME280;2713;42.680;23.310;2022-10-29T12:02:57;95870.59;;;21.47;40.36
5380;BME280;2713;42.680;23.310;2022-10-29T12:05:35;95869.41;;;21.43;40.48
5380;BME280;2713;42.680;23.310;2022-10-29T12:08:16;95855.69;;;21.34;40.55
5380;BME280;2713;42.680;23.310;2022-10-29T12:10:49;95861.25;;;21.44;40.04
5380;BME280;2713;42.680;23.310;2022-10-29T12:13:26;95857.78;;;21.32;39.59
5380;BME280;2713;42.680;23.310;2022-10-29T12:16:10;95845.00;;;21.41;39.47
5380;BME280;2713;42.680;23.310;2022-10-29T12:18:45;95849.38;;;21.35;39.84
5380;BME280;2713;42.680;23.310;2022-10-29T12:21:21;95843.28;;;21.23;40.07
5380;BME280;2713;42.680;23.310;2022-10-29T12:24:01;95839.38;;;21.07;40.33
5380;BME280;2713;42.680;23.310;2022-10-29T12:26:35;95844.78;;;21.01;40.26
5380;BME280;2713;42.680;23.310;2022-10-29T12:29:10;95839.47;;;21.01;40.68
5380;BME280;2713;42.680;23.310;2022-10-29T12:31:42;95831.84;;;20.93;40.79
5380;BME280;2713;42.680;23.310;2022-10-29T12:34:16;95830.13;;;20.87;40.29
5380;BME280;2713;42.680;23.310;2022-10-29T12:36:53;95838.13;;;20.80;39.68
5380;BME280;2713;42.680;23.310;2022-10-29T12:39:27;95834.31;;;20.76;39.35
5380;BME280;2713;42.680;23.310;2022-10-29T12:41:59;95836.50;;;20.79;39.82
5380;BME280;2713;42.680;23.310;2022-10-29T12:44:32;95824.56;;;20.77;39.89
5380;BME280;2713;42.680;23.310;2022-10-29T12:47:05;95827.81;;;20.79;40.45
5380;BME280;2713;42.680;23.310;2022-10-29T12:49:45;95820.03;;;20.65;40.06
5380;BME280;2713;42.680;23.310;2022-10-29T12:52:20;95826.00;;;20.61;39.81
5380;BME280;2713;42.680;23.310;2022-10-29T12:54:51;95820.19;;;20.52;39.70
5380;BME280;2713;42.680;23.310;2022-10-29T12:57:26;95818.44;;;20.46;39.97
5380;BME280;2713;42.680;23.310;2022-10-29T12:59:55;95815.44;;;20.43;40.49
5380;BME280;2713;42.680;23.310;2022-10-29T13:02:42;95808.69;;;20.47;40.71
5380;BME280;2713;42.680;23.310;2022-10-29T13:05:16;95811.19;;;20.42;40.97
5380;BME280;2713;42.680;23.310;2022-10-29T13:10:52;95799.25;;;20.39;41.02
5380;BME280;2713;42.680;23.310;2022-10-29T13:13:31;95801.88;;;20.39;40.79
5380;BME280;2713;42.680;23.310;2022-10-29T13:16:03;95800.78;;;20.47;40.68
5380;BME280;2713;42.680;23.310;2022-10-29T13:18:45;95795.50;;;20.47;40.62
5380;BME280;2713;42.680;23.310;2022-10-29T13:24:15;95784.78;;;20.23;41.21
5380;BME280;2713;42.680;23.310;2022-10-29T13:26:53;95786.47;;;20.36;41.17
5380;BME280;2713;42.680;23.310;2022-10-29T13:30:12;95782.81;;;20.37;40.78
5380;BME280;2713;42.680;23.310;2022-10-29T13:32:37;95787.06;;;20.38;40.72
5380;BME280;2713;42.680;23.310;2022-10-29T13:35:39;95774.91;;;20.37;40.89
5380;BME280;2713;42.680;23.310;2022-10-29T13:38:11;95781.69;;;20.45;40.50